sensor_id;sensor_type;location;lat;lon;timestamp;temperature;humidity
42135;DHT22;28312;43.460;11.810;2023-05-02T00:03:41;14.50;65.00
42135;DHT22;28312;43.460;11.810;2023-05-02T00:07:46;14.50;65.00
42135;DHT22;28312;43.460;11.810;2023-05-02T00:11:50;14.40;65.00
42135;DHT22;28312;43.460;11.810;2023-05-02T00:15:53;14.30;65.00
42135;DHT22;28312;43.460;11.810;2023-05-02T00:19:57;14.20;65.00
42135;DHT22;28312;43.460;11.810;2023-05-02T00:24:01;14.10;65.00
42135;DHT22;28312;43.460;11.810;2023-05-02T00:28:05;14.00;65.10
42135;DHT22;28312;43.460;11.810;2023-05-02T00:32:08;13.90;65.10
42135;DHT22;28312;43.460;11.810;2023-05-02T00:36:13;13.80;65.10
42135;DHT22;28312;43.460;11.810;2023-05-02T00:40:17;13.70;65.20
42135;DHT22;28312;43.460;11.810;2023-05-02T00:44:21;13.60;65.20
42135;DHT22;28312;43.460;11.810;2023-05-02T00:48:25;13.50;65.30
42135;DHT22;28312;43.460;11.810;2023-05-02T00:52:28;13.50;65.30
42135;DHT22;28312;43.460;11.810;2023-05-02T00:56:32;13.40;65.20
42135;DHT22;28312;43.460;11.810;2023-05-02T01:05:23;13.30;65.50
42135;DHT22;28312;43.460;11.810;2023-05-02T01:13:58;13.30;65.80
42135;DHT22;28312;43.460;11.810;2023-05-02T01:18:05;13.30;65.80
42135;DHT22;28312;43.460;11.810;2023-05-02T01:22:12;13.40;65.80
42135;DHT22;28312;43.460;11.810;2023-05-02T01:30:27;13.30;66.10
42135;DHT22;28312;43.460;11.810;2023-05-02T01:34:32;13.30;66.20
42135;DHT22;28312;43.460;11.810;2023-05-02T01:38:38;13.20;66.30
42135;DHT22;28312;43.460;11.810;2023-05-02T01:42:46;13.20;66.30
42135;DHT22;28312;43.460;11.810;2023-05-02T01:46:54;13.20;66.40
42135;DHT22;28312;43.460;11.810;2023-05-02T01:50:59;13.10;66.50
42135;DHT22;28312;43.460;11.810;2023-05-02T01:55:05;13.00;66.60
42135;DHT22;28312;43.460;11.810;2023-05-02T01:59:14;13.00;66.60
42135;DHT22;28312;43.460;11.810;2023-05-02T02:03:19;13.00;66.50
42135;DHT22;28312;43.460;11.810;2023-05-02T02:07:23;13.10;66.40
42135;DHT22;28312;43.460;11.810;2023-05-02T02:11:34;13.00;66.30
42135;DHT22;28312;43.460;11.810;2023-05-02T02:15:40;13.00;66.40
42135;DHT22;28312;43.460;11.810;2023-05-02T02:19:45;12.90;66.30
42135;DHT22;28312;43.460;11.810;2023-05-02T02:23:50;12.70;66.40
42135;DHT22;28312;43.460;11.810;2023-05-02T02:27:57;12.60;66.50
42135;DHT22;28312;43.460;11.810;2023-05-02T02:32:04;12.50;66.60
42135;DHT22;28312;43.460;11.810;2023-05-02T02:45:04;12.20;66.80
42135;DHT22;28312;43.460;11.810;2023-05-02T02:49:37;12.20;67.00
42135;DHT22;28312;43.460;11.810;2023-05-02T02:54:12;12.20;67.00
42135;DHT22;28312;43.460;11.810;2023-05-02T03:02:51;12.20;67.30
42135;DHT22;28312;43.460;11.810;2023-05-02T03:06:55;12.30;67.40
42135;DHT22;28312;43.460;11.810;2023-05-02T03:10:59;12.40;67.30
42135;DHT22;28312;43.460;11.810;2023-05-02T03:19:39;12.50;67.50
42135;DHT22;28312;43.460;11.810;2023-05-02T03:23:43;12.60;67.60
42135;DHT22;28312;43.460;11.810;2023-05-02T03:27:47;12.70;67.50
42135;DHT22;28312;43.460;11.810;2023-05-02T03:31:51;12.70;67.50
42135;DHT22;28312;43.460;11.810;2023-05-02T03:35:57;12.90;67.50
42135;DHT22;28312;43.460;11.810;2023-05-02T03:40:02;13.00;67.40
42135;DHT22;28312;43.460;11.810;2023-05-02T03:44:06;13.00;67.40
42135;DHT22;28312;43.460;11.810;2023-05-02T03:48:09;13.10;67.50
42135;DHT22;28312;43.460;11.810;2023-05-02T03:52:13;13.10;67.70
42135;DHT22;28312;43.460;11.810;2023-05-02T03:56:19;13.20;67.70
42135;DHT22;28312;43.460;11.810;2023-05-02T04:00:32;13.20;67.70
42135;DHT22;28312;43.460;11.810;2023-05-02T04:04:41;13.30;67.60
42135;DHT22;28312;43.460;11.810;2023-05-02T04:08:49;13.20;67.70
42135;DHT22;28312;43.460;11.810;2023-05-02T04:12:54;13.30;67.70
42135;DHT22;28312;43.460;11.810;2023-05-02T04:16:58;13.30;67.70
42135;DHT22;28312;43.460;11.810;2023-05-02T04:21:13;13.40;67.80
42135;DHT22;28312;43.460;11.810;2023-05-02T04:25:18;13.50;67.80
42135;DHT22;28312;43.460;11.810;2023-05-02T04:29:26;13.60;67.70
42135;DHT22;28312;43.460;11.810;2023-05-02T04:33:30;13.70;67.70
42135;DHT22;28312;43.460;11.810;2023-05-02T04:37:34;13.70;67.70
42135;DHT22;28312;43.460;11.810;2023-05-02T04:41:38;13.70;67.80
42135;DHT22;28312;43.460;11.810;2023-05-02T04:45:42;13.70;67.80
42135;DHT22;28312;43.460;11.810;2023-05-02T04:49:52;13.70;67.90
42135;DHT22;28312;43.460;11.810;2023-05-02T04:53:56;13.70;68.00
42135;DHT22;28312;43.460;11.810;2023-05-02T04:57:59;13.80;67.90
42135;DHT22;28312;43.460;11.810;2023-05-02T05:02:03;13.90;67.90
42135;DHT22;28312;43.460;11.810;2023-05-02T05:06:07;13.90;67.90
42135;DHT22;28312;43.460;11.810;2023-05-02T05:10:11;14.00;67.90
42135;DHT22;28312;43.460;11.810;2023-05-02T05:14:19;14.10;67.80
42135;DHT22;28312;43.460;11.810;2023-05-02T05:18:27;14.10;67.80
42135;DHT22;28312;43.460;11.810;2023-05-02T05:22:32;14.20;67.80
42135;DHT22;28312;43.460;11.810;2023-05-02T05:26:41;14.20;67.90
42135;DHT22;28312;43.460;11.810;2023-05-02T05:30:45;14.20;67.90
42135;DHT22;28312;43.460;11.810;2023-05-02T05:34:53;14.30;67.90
42135;DHT22;28312;43.460;11.810;2023-05-02T05:39:01;14.40;67.90
42135;DHT22;28312;43.460;11.810;2023-05-02T05:43:07;14.40;68.10
42135;DHT22;28312;43.460;11.810;2023-05-02T05:47:18;14.50;68.10
42135;DHT22;28312;43.460;11.810;2023-05-02T05:51:25;14.50;68.00
42135;DHT22;28312;43.460;11.810;2023-05-02T05:55:32;14.60;68.10
42135;DHT22;28312;43.460;11.810;2023-05-02T05:59:39;14.70;68.10
42135;DHT22;28312;43.460;11.810;2023-05-02T06:03:44;14.70;68.20
42135;DHT22;28312;43.460;11.810;2023-05-02T06:07:50;14.80;68.20
42135;DHT22;28312;43.460;11.810;2023-05-02T06:11:53;14.90;68.10
42135;DHT22;28312;43.460;11.810;2023-05-02T06:16:00;14.90;68.20
42135;DHT22;28312;43.460;11.810;2023-05-02T06:20:06;15.00;68.20
42135;DHT22;28312;43.460;11.810;2023-05-02T06:24:12;15.00;68.20
42135;DHT22;28312;43.460;11.810;2023-05-02T06:28:15;15.00;68.20
42135;DHT22;28312;43.460;11.810;2023-05-02T06:32:19;15.00;68.30
42135;DHT22;28312;43.460;11.810;2023-05-02T06:36:23;15.10;68.50
42135;DHT22;28312;43.460;11.810;2023-05-02T06:40:27;15.20;68.60
42135;DHT22;28312;43.460;11.810;2023-05-02T06:44:30;15.40;68.60
42135;DHT22;28312;43.460;11.810;2023-05-02T06:48:37;15.50;68.60
42135;DHT22;28312;43.460;11.810;2023-05-02T06:52:41;15.60;68.40
42135;DHT22;28312;43.460;11.810;2023-05-02T06:56:44;15.60;68.30
42135;DHT22;28312;43.460;11.810;2023-05-02T07:00:48;15.50;68.10
42135;DHT22;28312;43.460;11.810;2023-05-02T07:04:52;15.50;67.90
42135;DHT22;28312;43.460;11.810;2023-05-02T07:08:57;15.30;68.00
42135;DHT22;28312;43.460;11.810;2023-05-02T07:13:00;15.20;68.10
42135;DHT22;28312;43.460;11.810;2023-05-02T07:17:06;15.10;68.40
42135;DHT22;28312;43.460;11.810;2023-05-02T07:21:11;15.20;68.50
42135;DHT22;28312;43.460;11.810;2023-05-02T07:25:15;15.20;68.50
42135;DHT22;28312;43.460;11.810;2023-05-02T07:29:18;15.20;68.60
42135;DHT22;28312;43.460;11.810;2023-05-02T07:33:22;15.30;68.60
42135;DHT22;28312;43.460;11.810;2023-05-02T07:37:30;15.40;68.50
42135;DHT22;28312;43.460;11.810;2023-05-02T07:41:39;15.50;68.60
42135;DHT22;28312;43.460;11.810;2023-05-02T07:45:43;15.50;68.50
42135;DHT22;28312;43.460;11.810;2023-05-02T07:49:50;15.50;68.70
42135;DHT22;28312;43.460;11.810;2023-05-02T07:53:55;15.60;68.70
42135;DHT22;28312;43.460;11.810;2023-05-02T07:58:00;15.60;68.80
42135;DHT22;28312;43.460;11.810;2023-05-02T08:02:04;15.80;69.10
42135;DHT22;28312;43.460;11.810;2023-05-02T08:06:08;16.00;69.30
42135;DHT22;28312;43.460;11.810;2023-05-02T08:10:12;16.20;69.20
42135;DHT22;28312;43.460;11.810;2023-05-02T08:14:15;16.50;69.10
42135;DHT22;28312;43.460;11.810;2023-05-02T08:18:20;16.60;69.00
42135;DHT22;28312;43.460;11.810;2023-05-02T08:22:23;16.60;69.10
42135;DHT22;28312;43.460;11.810;2023-05-02T08:26:27;16.80;69.30
42135;DHT22;28312;43.460;11.810;2023-05-02T08:30:30;17.10;69.40
42135;DHT22;28312;43.460;11.810;2023-05-02T08:34:34;17.30;69.20
42135;DHT22;28312;43.460;11.810;2023-05-02T08:38:37;17.50;69.20
42135;DHT22;28312;43.460;11.810;2023-05-02T08:42:42;17.60;69.40
42135;DHT22;28312;43.460;11.810;2023-05-02T08:46:48;17.90;69.20
42135;DHT22;28312;43.460;11.810;2023-05-02T08:50:53;18.10;69.40
42135;DHT22;28312;43.460;11.810;2023-05-02T08:55:00;18.20;69.40
42135;DHT22;28312;43.460;11.810;2023-05-02T08:59:06;18.50;69.40
42135;DHT22;28312;43.460;11.810;2023-05-02T09:03:34;18.70;69.10
42135;DHT22;28312;43.460;11.810;2023-05-02T09:07:50;18.90;69.50
42135;DHT22;28312;43.460;11.810;2023-05-02T09:11:53;19.10;69.40
42135;DHT22;28312;43.460;11.810;2023-05-02T09:15:59;19.30;69.30
42135;DHT22;28312;43.460;11.810;2023-05-02T09:20:04;19.40;69.00
42135;DHT22;28312;43.460;11.810;2023-05-02T09:24:16;19.40;68.90
42135;DHT22;28312;43.460;11.810;2023-05-02T09:28:20;19.40;68.80
42135;DHT22;28312;43.460;11.810;2023-05-02T09:32:46;19.40;68.90
42135;DHT22;28312;43.460;11.810;2023-05-02T09:36:51;19.50;68.90
42135;DHT22;28312;43.460;11.810;2023-05-02T09:40:56;19.60;68.90
42135;DHT22;28312;43.460;11.810;2023-05-02T09:45:01;19.70;68.90
42135;DHT22;28312;43.460;11.810;2023-05-02T09:49:05;19.90;69.00
42135;DHT22;28312;43.460;11.810;2023-05-02T09:53:08;20.00;68.60
42135;DHT22;28312;43.460;11.810;2023-05-02T09:57:16;20.00;68.70
42135;DHT22;28312;43.460;11.810;2023-05-02T10:01:20;19.90;68.60
42135;DHT22;28312;43.460;11.810;2023-05-02T10:05:24;19.80;68.70
42135;DHT22;28312;43.460;11.810;2023-05-02T10:09:29;19.90;69.40
42135;DHT22;28312;43.460;11.810;2023-05-02T10:13:37;20.20;70.60
42135;DHT22;28312;43.460;11.810;2023-05-02T10:17:46;20.90;70.80
42135;DHT22;28312;43.460;11.810;2023-05-02T10:21:52;21.60;70.90
42135;DHT22;28312;43.460;11.810;2023-05-02T10:25:57;22.10;70.10
42135;DHT22;28312;43.460;11.810;2023-05-02T10:30:02;22.30;69.20
42135;DHT22;28312;43.460;11.810;2023-05-02T10:34:10;22.50;69.10
42135;DHT22;28312;43.460;11.810;2023-05-02T10:38:21;22.60;68.60
42135;DHT22;28312;43.460;11.810;2023-05-02T10:42:27;22.70;68.30
42135;DHT22;28312;43.460;11.810;2023-05-02T10:46:34;22.60;67.40
42135;DHT22;28312;43.460;11.810;2023-05-02T10:50:52;22.20;66.90
42135;DHT22;28312;43.460;11.810;2023-05-02T10:55:15;21.80;66.60
42135;DHT22;28312;43.460;11.810;2023-05-02T10:59:37;21.30;66.70
42135;DHT22;28312;43.460;11.810;2023-05-02T11:03:54;20.90;66.90
42135;DHT22;28312;43.460;11.810;2023-05-02T11:21:27;20.10;66.60
42135;DHT22;28312;43.460;11.810;2023-05-02T11:25:36;19.90;66.70
42135;DHT22;28312;43.460;11.810;2023-05-02T11:29:53;19.70;66.80
42135;DHT22;28312;43.460;11.810;2023-05-02T11:34:01;19.60;66.90
42135;DHT22;28312;43.460;11.810;2023-05-02T11:38:15;19.50;67.10
42135;DHT22;28312;43.460;11.810;2023-05-02T11:42:29;19.30;67.20
42135;DHT22;28312;43.460;11.810;2023-05-02T11:46:38;19.30;67.40
42135;DHT22;28312;43.460;11.810;2023-05-02T11:50:53;19.30;67.50
42135;DHT22;28312;43.460;11.810;2023-05-02T11:54:59;19.40;67.60
42135;DHT22;28312;43.460;11.810;2023-05-02T11:59:04;19.60;67.70
42135;DHT22;28312;43.460;11.810;2023-05-02T12:07:38;20.10;67.80
42135;DHT22;28312;43.460;11.810;2023-05-02T12:11:41;20.50;67.70
42135;DHT22;28312;43.460;11.810;2023-05-02T12:15:47;20.70;67.50
42135;DHT22;28312;43.460;11.810;2023-05-02T12:19:51;21.00;67.40
42135;DHT22;28312;43.460;11.810;2023-05-02T12:23:55;21.10;67.20
42135;DHT22;28312;43.460;11.810;2023-05-02T12:28:02;21.20;67.00
42135;DHT22;28312;43.460;11.810;2023-05-02T12:32:05;21.40;66.80
42135;DHT22;28312;43.460;11.810;2023-05-02T12:36:09;21.50;66.60
42135;DHT22;28312;43.460;11.810;2023-05-02T12:40:16;21.60;66.50
42135;DHT22;28312;43.460;11.810;2023-05-02T12:44:34;21.60;66.40
42135;DHT22;28312;43.460;11.810;2023-05-02T12:48:37;21.50;66.30
42135;DHT22;28312;43.460;11.810;2023-05-02T12:52:50;21.40;66.20
42135;DHT22;28312;43.460;11.810;2023-05-02T12:57:01;21.50;66.20
42135;DHT22;28312;43.460;11.810;2023-05-02T13:01:06;21.40;66.20
42135;DHT22;28312;43.460;11.810;2023-05-02T13:05:15;21.30;66.40
42135;DHT22;28312;43.460;11.810;2023-05-02T13:09:18;21.20;66.50
42135;DHT22;28312;43.460;11.810;2023-05-02T13:13:22;21.10;66.90
42135;DHT22;28312;43.460;11.810;2023-05-02T13:17:26;21.10;67.20
42135;DHT22;28312;43.460;11.810;2023-05-02T13:21:30;21.10;67.50
42135;DHT22;28312;43.460;11.810;2023-05-02T13:25:34;21.40;68.30
42135;DHT22;28312;43.460;11.810;2023-05-02T13:29:37;22.00;69.30
42135;DHT22;28312;43.460;11.810;2023-05-02T13:33:41;22.40;68.10
42135;DHT22;28312;43.460;11.810;2023-05-02T13:37:44;22.40;66.50
42135;DHT22;28312;43.460;11.810;2023-05-02T13:41:48;21.90;65.50
42135;DHT22;28312;43.460;11.810;2023-05-02T13:45:51;21.40;65.40
42135;DHT22;28312;43.460;11.810;2023-05-02T13:49:55;21.10;65.60
42135;DHT22;28312;43.460;11.810;2023-05-02T13:53:59;20.80;65.80
42135;DHT22;28312;43.460;11.810;2023-05-02T13:58:03;20.60;66.10
42135;DHT22;28312;43.460;11.810;2023-05-02T14:02:07;20.40;66.50
42135;DHT22;28312;43.460;11.810;2023-05-02T14:06:14;20.30;66.60
42135;DHT22;28312;43.460;11.810;2023-05-02T14:10:17;20.20;66.60
42135;DHT22;28312;43.460;11.810;2023-05-02T14:14:21;20.10;66.70
42135;DHT22;28312;43.460;11.810;2023-05-02T14:18:24;20.10;66.80
42135;DHT22;28312;43.460;11.810;2023-05-02T14:22:28;20.10;66.60
42135;DHT22;28312;43.460;11.810;2023-05-02T14:26:31;20.00;66.70
42135;DHT22;28312;43.460;11.810;2023-05-02T14:30:35;20.00;67.10
42135;DHT22;28312;43.460;11.810;2023-05-02T14:34:39;20.10;67.10
42135;DHT22;28312;43.460;11.810;2023-05-02T14:38:44;20.20;67.30
42135;DHT22;28312;43.460;11.810;2023-05-02T14:42:47;20.40;67.70
42135;DHT22;28312;43.460;11.810;2023-05-02T14:46:53;20.70;68.20
42135;DHT22;28312;43.460;11.810;2023-05-02T14:51:01;20.90;67.40
42135;DHT22;28312;43.460;11.810;2023-05-02T14:55:05;20.70;66.60
42135;DHT22;28312;43.460;11.810;2023-05-02T14:59:09;20.40;66.70
42135;DHT22;28312;43.460;11.810;2023-05-02T15:03:12;20.20;66.50
42135;DHT22;28312;43.460;11.810;2023-05-02T15:07:16;19.90;66.30
42135;DHT22;28312;43.460;11.810;2023-05-02T15:11:21;19.70;66.40
42135;DHT22;28312;43.460;11.810;2023-05-02T15:15:24;19.50;66.50
42135;DHT22;28312;43.460;11.810;2023-05-02T15:19:28;19.20;66.70
42135;DHT22;28312;43.460;11.810;2023-05-02T15:23:32;19.10;66.90
42135;DHT22;28312;43.460;11.810;2023-05-02T15:27:35;18.90;67.10
42135;DHT22;28312;43.460;11.810;2023-05-02T15:31:39;18.70;67.30
42135;DHT22;28312;43.460;11.810;2023-05-02T15:35:52;18.70;67.20
42135;DHT22;28312;43.460;11.810;2023-05-02T15:39:56;18.60;67.10
42135;DHT22;28312;43.460;11.810;2023-05-02T15:44:03;18.50;67.20
42135;DHT22;28312;43.460;11.810;2023-05-02T15:48:07;18.40;67.30
42135;DHT22;28312;43.460;11.810;2023-05-02T15:52:11;18.40;67.30
42135;DHT22;28312;43.460;11.810;2023-05-02T15:56:14;18.40;67.40
42135;DHT22;28312;43.460;11.810;2023-05-02T16:00:18;18.40;67.40
42135;DHT22;28312;43.460;11.810;2023-05-02T16:04:22;18.40;67.30
42135;DHT22;28312;43.460;11.810;2023-05-02T16:08:27;18.40;67.20
42135;DHT22;28312;43.460;11.810;2023-05-02T16:12:31;18.40;67.20
42135;DHT22;28312;43.460;11.810;2023-05-02T16:16:35;18.40;67.20
42135;DHT22;28312;43.460;11.810;2023-05-02T16:20:39;18.40;67.30
42135;DHT22;28312;43.460;11.810;2023-05-02T16:24:44;18.40;67.20
42135;DHT22;28312;43.460;11.810;2023-05-02T16:28:48;18.40;67.10
42135;DHT22;28312;43.460;11.810;2023-05-02T16:32:51;18.30;67.00
42135;DHT22;28312;43.460;11.810;2023-05-02T16:36:54;18.20;66.90
42135;DHT22;28312;43.460;11.810;2023-05-02T16:41:02;18.20;66.90
42135;DHT22;28312;43.460;11.810;2023-05-02T16:45:07;18.20;66.80
42135;DHT22;28312;43.460;11.810;2023-05-02T16:49:10;18.20;66.70
42135;DHT22;28312;43.460;11.810;2023-05-02T16:53:14;18.20;66.60
42135;DHT22;28312;43.460;11.810;2023-05-02T16:57:18;18.20;66.40
42135;DHT22;28312;43.460;11.810;2023-05-02T17:01:23;18.10;66.40
42135;DHT22;28312;43.460;11.810;2023-05-02T17:05:26;18.10;66.30
42135;DHT22;28312;43.460;11.810;2023-05-02T17:09:30;18.00;66.30
42135;DHT22;28312;43.460;11.810;2023-05-02T17:13:34;17.90;66.20
42135;DHT22;28312;43.460;11.810;2023-05-02T17:17:37;17.80;66.10
42135;DHT22;28312;43.460;11.810;2023-05-02T17:21:41;17.70;66.20
42135;DHT22;28312;43.460;11.810;2023-05-02T17:25:44;17.60;66.20
42135;DHT22;28312;43.460;11.810;2023-05-02T17:29:49;17.50;66.20
42135;DHT22;28312;43.460;11.810;2023-05-02T17:33:53;17.40;66.20
42135;DHT22;28312;43.460;11.810;2023-05-02T17:37:57;17.30;66.30
42135;DHT22;28312;43.460;11.810;2023-05-02T17:42:00;17.30;66.20
42135;DHT22;28312;43.460;11.810;2023-05-02T17:46:08;17.20;66.20
42135;DHT22;28312;43.460;11.810;2023-05-02T17:50:13;17.20;66.20
42135;DHT22;28312;43.460;11.810;2023-05-02T17:54:16;17.20;66.10
42135;DHT22;28312;43.460;11.810;2023-05-02T17:58:20;17.20;66.20
42135;DHT22;28312;43.460;11.810;2023-05-02T18:02:26;17.10;66.20
42135;DHT22;28312;43.460;11.810;2023-05-02T18:06:30;17.10;66.20
42135;DHT22;28312;43.460;11.810;2023-05-02T18:10:37;17.10;66.20
42135;DHT22;28312;43.460;11.810;2023-05-02T18:14:40;17.00;66.20
42135;DHT22;28312;43.460;11.810;2023-05-02T18:18:44;16.90;66.20
42135;DHT22;28312;43.460;11.810;2023-05-02T18:22:48;16.90;66.30
42135;DHT22;28312;43.460;11.810;2023-05-02T18:26:53;16.90;66.20
42135;DHT22;28312;43.460;11.810;2023-05-02T18:30:58;16.90;66.10
42135;DHT22;28312;43.460;11.810;2023-05-02T18:35:02;16.90;66.10
42135;DHT22;28312;43.460;11.810;2023-05-02T18:39:10;16.80;66.00
42135;DHT22;28312;43.460;11.810;2023-05-02T18:43:14;16.80;66.10
42135;DHT22;28312;43.460;11.810;2023-05-02T18:47:18;16.80;66.10
42135;DHT22;28312;43.460;11.810;2023-05-02T18:51:22;16.80;66.10
42135;DHT22;28312;43.460;11.810;2023-05-02T18:55:25;16.70;66.20
42135;DHT22;28312;43.460;11.810;2023-05-02T18:59:30;16.80;66.30
42135;DHT22;28312;43.460;11.810;2023-05-02T19:03:34;16.70;66.30
42135;DHT22;28312;43.460;11.810;2023-05-02T19:07:38;16.80;66.30
42135;DHT22;28312;43.460;11.810;2023-05-02T19:11:42;16.70;66.30
42135;DHT22;28312;43.460;11.810;2023-05-02T19:15:46;16.70;66.40
42135;DHT22;28312;43.460;11.810;2023-05-02T19:19:49;16.70;66.30
42135;DHT22;28312;43.460;11.810;2023-05-02T19:23:54;16.70;66.30
42135;DHT22;28312;43.460;11.810;2023-05-02T19:27:58;16.70;66.30
42135;DHT22;28312;43.460;11.810;2023-05-02T19:32:03;16.70;66.30
42135;DHT22;28312;43.460;11.810;2023-05-02T19:36:07;16.70;66.20
42135;DHT22;28312;43.460;11.810;2023-05-02T19:40:11;16.70;66.20
42135;DHT22;28312;43.460;11.810;2023-05-02T19:44:15;16.70;66.20
42135;DHT22;28312;43.460;11.810;2023-05-02T19:48:20;16.70;66.20
42135;DHT22;28312;43.460;11.810;2023-05-02T19:52:25;16.70;66.20
42135;DHT22;28312;43.460;11.810;2023-05-02T19:56:28;16.60;66.20
42135;DHT22;28312;43.460;11.810;2023-05-02T20:00:32;16.60;66.10
42135;DHT22;28312;43.460;11.810;2023-05-02T20:04:36;16.60;66.20
42135;DHT22;28312;43.460;11.810;2023-05-02T20:08:40;16.50;66.30
42135;DHT22;28312;43.460;11.810;2023-05-02T20:12:44;16.40;66.40
42135;DHT22;28312;43.460;11.810;2023-05-02T20:16:49;16.40;66.50
42135;DHT22;28312;43.460;11.810;2023-05-02T20:20:53;16.40;66.50
42135;DHT22;28312;43.460;11.810;2023-05-02T20:24:57;16.30;66.60
42135;DHT22;28312;43.460;11.810;2023-05-02T20:29:02;16.30;66.70
42135;DHT22;28312;43.460;11.810;2023-05-02T20:33:08;16.20;66.80
42135;DHT22;28312;43.460;11.810;2023-05-02T20:37:20;16.20;66.90
42135;DHT22;28312;43.460;11.810;2023-05-02T20:41:26;16.20;66.80
42135;DHT22;28312;43.460;11.810;2023-05-02T20:45:31;16.20;66.90
42135;DHT22;28312;43.460;11.810;2023-05-02T20:49:37;16.20;66.70
42135;DHT22;28312;43.460;11.810;2023-05-02T20:53:40;16.20;66.80
42135;DHT22;28312;43.460;11.810;2023-05-02T20:57:44;16.10;67.00
42135;DHT22;28312;43.460;11.810;2023-05-02T21:01:48;16.10;67.00
42135;DHT22;28312;43.460;11.810;2023-05-02T21:05:52;16.20;67.00
42135;DHT22;28312;43.460;11.810;2023-05-02T21:09:57;16.20;66.90
42135;DHT22;28312;43.460;11.810;2023-05-02T21:14:00;16.10;66.80
42135;DHT22;28312;43.460;11.810;2023-05-02T21:18:04;16.20;66.80
42135;DHT22;28312;43.460;11.810;2023-05-02T21:22:08;16.20;66.90
42135;DHT22;28312;43.460;11.810;2023-05-02T21:26:11;16.10;66.90
42135;DHT22;28312;43.460;11.810;2023-05-02T21:30:15;16.20;66.80
42135;DHT22;28312;43.460;11.810;2023-05-02T21:34:18;16.10;66.90
42135;DHT22;28312;43.460;11.810;2023-05-02T21:38:22;16.20;67.00
42135;DHT22;28312;43.460;11.810;2023-05-02T21:42:26;16.10;67.00
42135;DHT22;28312;43.460;11.810;2023-05-02T21:46:30;16.20;67.00
42135;DHT22;28312;43.460;11.810;2023-05-02T21:50:33;16.20;67.00
42135;DHT22;28312;43.460;11.810;2023-05-02T21:54:37;16.20;67.00
42135;DHT22;28312;43.460;11.810;2023-05-02T21:58:41;16.20;67.00
42135;DHT22;28312;43.460;11.810;2023-05-02T22:02:44;16.20;67.00
42135;DHT22;28312;43.460;11.810;2023-05-02T22:06:49;16.20;67.00
42135;DHT22;28312;43.460;11.810;2023-05-02T22:10:56;16.20;67.00
42135;DHT22;28312;43.460;11.810;2023-05-02T22:15:05;16.10;67.10
42135;DHT22;28312;43.460;11.810;2023-05-02T22:19:10;16.20;67.10
42135;DHT22;28312;43.460;11.810;2023-05-02T22:23:14;16.20;67.10
42135;DHT22;28312;43.460;11.810;2023-05-02T22:27:18;16.20;67.00
42135;DHT22;28312;43.460;11.810;2023-05-02T22:31:22;16.20;67.00
42135;DHT22;28312;43.460;11.810;2023-05-02T22:35:26;16.20;67.10
42135;DHT22;28312;43.460;11.810;2023-05-02T22:39:30;16.20;67.10
42135;DHT22;28312;43.460;11.810;2023-05-02T22:43:33;16.20;67.20
42135;DHT22;28312;43.460;11.810;2023-05-02T22:47:37;16.20;67.20
42135;DHT22;28312;43.460;11.810;2023-05-02T22:51:41;16.10;67.30
42135;DHT22;28312;43.460;11.810;2023-05-02T22:55:44;16.10;67.30
42135;DHT22;28312;43.460;11.810;2023-05-02T22:59:48;16.10;67.30
42135;DHT22;28312;43.460;11.810;2023-05-02T23:03:51;16.10;67.30
42135;DHT22;28312;43.460;11.810;2023-05-02T23:07:55;16.00;67.40
42135;DHT22;28312;43.460;11.810;2023-05-02T23:11:59;16.10;67.40
42135;DHT22;28312;43.460;11.810;2023-05-02T23:16:04;16.00;67.40
42135;DHT22;28312;43.460;11.810;2023-05-02T23:20:09;15.90;67.50
42135;DHT22;28312;43.460;11.810;2023-05-02T23:24:12;15.90;67.50
42135;DHT22;28312;43.460;11.810;2023-05-02T23:28:16;15.90;67.40
42135;DHT22;28312;43.460;11.810;2023-05-02T23:32:20;15.90;67.50
42135;DHT22;28312;43.460;11.810;2023-05-02T23:36:25;15.90;67.60
42135;DHT22;28312;43.460;11.810;2023-05-02T23:40:29;15.80;67.70
42135;DHT22;28312;43.460;11.810;2023-05-02T23:44:33;15.80;67.80
42135;DHT22;28312;43.460;11.810;2023-05-02T23:48:37;15.80;67.80
42135;DHT22;28312;43.460;11.810;2023-05-02T23:52:40;15.70;67.90
42135;DHT22;28312;43.460;11.810;2023-05-02T23:56:45;15.70;68.00
